Time;durP1;ratioP1;P1;durP2;ratioP2;P2;SDS_P1;SDS_P2;PMS_P1;PMS_P2;Temp;Humidity;BMP_temperature;BMP_pressure;BME280_temperature;BME280_humidity;BME280_pressure;Samples;Min_cycle;Max_cycle;Signal;HPM_P1;HPM_P2
2021/01/30 00:01:47;;;;;;;19.30;9.73;;;;;;;7.91;59.36;100109.50;4817550;29;115112;-72
2021/01/30 00:04:14;;;;;;;17.55;9.52;;;;;;;7.83;59.48;100116.88;4811330;29;123880;-73
2021/01/30 00:06:59;;;;;;;17.83;8.95;;;;;;;7.76;59.59;100115.44;4813370;29;123819;-72
2021/01/30 00:09:26;;;;;;;14.43;7.90;;;;;;;7.71;59.56;100112.19;4808577;29;114355;-72
2021/01/30 00:11:56;;;;;;;13.55;7.43;;;;;;;7.65;59.45;100129.13;4810513;29;113244;-72
2021/01/30 00:14:31;;;;;;;14.45;7.75;;;;;;;7.56;59.46;100114.56;4811117;29;124541;-73
2021/01/30 00:17:00;;;;;;;15.55;8.05;;;;;;;7.50;59.36;100129.81;4810891;29;123872;-72
2021/01/30 00:19:28;;;;;;;12.90;7.93;;;;;;;7.44;59.49;100130.94;4810817;29;113534;-72
2021/01/30 00:21:59;;;;;;;12.75;7.45;;;;;;;7.36;59.40;100127.75;4812337;29;114426;-73
2021/01/30 00:24:27;;;;;;;12.20;6.68;;;;;;;7.27;58.94;100128.13;4808790;29;124461;-72
2021/01/30 00:26:57;;;;;;;7.97;5.68;;;;;;;7.20;59.23;100128.41;4813609;29;122803;-72
2021/01/30 00:29:29;;;;;;;8.75;5.20;;;;;;;7.13;59.00;100126.97;4797389;29;114105;-72
2021/01/30 00:31:55;;;;;;;10.18;5.15;;;;;;;7.05;58.81;100131.69;4811632;29;113797;-72
2021/01/30 00:34:25;;;;;;;9.02;5.00;;;;;;;7.00;58.48;100131.03;4801215;29;124786;-72
2021/01/30 00:36:53;;;;;;;10.23;4.90;;;;;;;6.94;58.95;100136.56;4816267;29;123513;-72
2021/01/30 00:39:20;;;;;;;7.38;4.88;;;;;;;6.91;59.01;100128.78;4808045;29;114078;-71
2021/01/30 00:41:46;;;;;;;8.13;4.72;;;;;;;6.88;58.83;100142.09;4783352;29;113423;-72
2021/01/30 00:44:14;;;;;;;6.65;4.13;;;;;;;6.83;58.88;100129.94;4816188;29;124596;-72
2021/01/30 00:46:42;;;;;;;8.30;4.22;;;;;;;6.80;58.64;100135.34;4813923;29;123640;-72
2021/01/30 00:49:08;;;;;;;6.53;3.90;;;;;;;6.76;58.83;100136.41;4812009;29;114941;-72
2021/01/30 00:51:35;;;;;;;6.60;3.80;;;;;;;6.72;58.42;100132.16;4815604;29;115133;-72
2021/01/30 00:54:04;;;;;;;6.00;3.92;;;;;;;6.69;58.65;100137.56;4814043;29;123409;-72
2021/01/30 00:56:30;;;;;;;5.35;4.00;;;;;;;6.66;58.65;100137.66;4827226;29;122731;-72
2021/01/30 00:58:57;;;;;;;5.72;3.85;;;;;;;6.64;58.89;100139.50;4813073;29;114733;-72
2021/01/30 01:01:24;;;;;;;8.13;3.60;;;;;;;6.63;58.49;100137.81;4808851;29;113969;-71
2021/01/30 01:03:51;;;;;;;6.53;4.13;;;;;;;6.60;58.74;100133.50;4810856;29;123338;-72
2021/01/30 01:06:18;;;;;;;5.13;3.92;;;;;;;6.59;58.67;100152.00;4811575;29;124108;-72
2021/01/30 01:08:44;;;;;;;5.97;4.20;;;;;;;6.55;58.21;100150.41;4814382;29;114504;-73
2021/01/30 01:11:11;;;;;;;7.85;5.40;;;;;;;6.50;57.92;100152.34;4816213;29;113718;-72
2021/01/30 01:13:38;;;;;;;6.75;5.22;;;;;;;6.48;57.99;100159.44;4828621;29;124197;-71
2021/01/30 01:16:04;;;;;;;6.10;5.35;;;;;;;6.42;57.92;100152.66;4809426;29;123573;-71
2021/01/30 01:18:31;;;;;;;7.82;6.03;;;;;;;6.37;58.35;100158.09;4807401;29;114415;-72
2021/01/30 01:20:58;;;;;;;10.55;6.03;;;;;;;6.32;58.09;100164.47;4826891;29;113718;-72
2021/01/30 01:23:25;;;;;;;7.30;5.90;;;;;;;6.26;57.96;100165.56;4813689;29;124381;-72
2021/01/30 01:25:51;;;;;;;8.23;6.10;;;;;;;6.21;58.44;100163.06;4809918;29;123668;-72
2021/01/30 01:28:18;;;;;;;9.82;6.75;;;;;;;6.17;58.53;100172.00;4816245;29;114587;-72
2021/01/30 01:30:45;;;;;;;9.45;7.13;;;;;;;6.14;58.27;100176.50;4797517;29;113375;-72
2021/01/30 01:33:12;;;;;;;9.15;7.07;;;;;;;6.13;58.20;100177.44;4828109;29;124289;-72
2021/01/30 01:35:38;;;;;;;9.27;7.32;;;;;;;6.10;58.20;100185.44;4807553;29;121958;-72
2021/01/30 01:38:05;;;;;;;9.30;7.28;;;;;;;6.04;58.22;100182.13;4805553;29;115026;-72
2021/01/30 01:40:38;;;;;;;11.30;7.65;;;;;;;6.01;58.19;100182.25;4811733;29;115508;-72
2021/01/30 01:43:15;;;;;;;9.20;8.23;;;;;;;5.98;58.14;100182.34;4816442;29;124499;-72
2021/01/30 01:45:43;;;;;;;12.13;7.65;;;;;;;5.95;58.42;100177.22;4814933;29;124217;-71
2021/01/30 01:48:26;;;;;;;10.35;8.27;;;;;;;5.94;58.44;100175.47;4817231;29;113845;-71
2021/01/30 01:50:53;;;;;;;10.82;8.60;;;;;;;5.96;58.68;100184.19;4811298;29;114309;-71
2021/01/30 01:53:30;;;;;;;12.70;9.13;;;;;;;5.98;58.64;100186.75;4814595;29;123313;-71
2021/01/30 01:56:08;;;;;;;12.85;9.68;;;;;;;5.98;58.69;100197.28;4791926;29;124834;-72
2021/01/30 01:58:40;;;;;;;13.48;9.77;;;;;;;5.98;58.49;100192.00;4791730;29;114557;-72
2021/01/30 02:01:08;;;;;;;13.32;9.43;;;;;;;5.96;58.63;100199.94;4794595;29;115033;-71
2021/01/30 02:03:36;;;;;;;16.83;9.50;;;;;;;5.98;58.95;100197.28;4791486;29;124947;-72
2021/01/30 02:06:03;;;;;;;11.95;9.30;;;;;;;5.98;59.02;100202.53;4794761;29;123293;-72
2021/01/30 02:08:32;;;;;;;12.90;10.00;;;;;;;5.96;58.71;100194.69;4792527;29;114872;-72
2021/01/30 02:11:00;;;;;;;12.18;9.82;;;;;;;5.97;58.74;100201.69;4804720;29;113827;-72
2021/01/30 02:13:40;;;;;;;12.45;10.02;;;;;;;5.95;58.51;100198.25;4792615;29;124698;-71
2021/01/30 02:16:12;;;;;;;15.35;10.45;;;;;;;5.96;58.77;100199.94;4791234;29;126854;-72
2021/01/30 02:19:07;;;;;;;13.45;9.95;;;;;;;5.93;58.80;100194.75;4814711;29;113602;-72
2021/01/30 02:22:03;;;;;;;15.35;11.50;;;;;;;5.97;58.67;100201.69;4790667;29;113938;-72
2021/01/30 02:24:55;;;;;;;14.90;11.00;;;;;;;5.98;58.65;100206.00;4790388;29;124145;-72
2021/01/30 02:27:21;;;;;;;17.55;12.27;;;;;;;5.97;58.73;100212.19;4812909;29;122878;-72
2021/01/30 02:30:00;;;;;;;17.65;13.02;;;;;;;5.98;59.10;100218.28;4793627;29;115876;-72
2021/01/30 02:32:57;;;;;;;17.52;12.32;;;;;;;5.95;58.85;100208.75;4804325;29;114345;-73
2021/01/30 02:36:21;;;;;;;19.85;14.55;;;;;;;5.92;58.96;100208.81;4794933;29;125309;-72
2021/01/30 02:38:56;;;;;;;19.90;14.90;;;;;;;5.89;58.76;100214.19;4761980;29;123271;-72
2021/01/30 02:41:29;;;;;;;21.00;16.35;;;;;;;5.85;58.96;100212.59;4760625;29;114535;-72
2021/01/30 02:44:00;;;;;;;24.02;17.35;;;;;;;5.82;58.62;100213.56;4774406;29;114355;-72
2021/01/30 02:46:32;;;;;;;23.67;16.85;;;;;;;5.78;58.54;100221.59;4806708;29;123219;-71
2021/01/30 02:49:04;;;;;;;23.48;17.08;;;;;;;5.74;58.72;100209.47;4803342;29;122898;-73
2021/01/30 02:51:39;;;;;;;27.23;18.40;;;;;;;5.72;58.99;100217.41;4794165;29;114487;-72
2021/01/30 02:54:08;;;;;;;26.98;19.90;;;;;;;5.73;59.17;100218.28;4791168;29;114220;-72
2021/01/30 02:56:34;;;;;;;26.80;18.65;;;;;;;5.71;59.14;100214.81;4789511;29;124051;-71
2021/01/30 02:59:08;;;;;;;27.30;18.55;;;;;;;5.66;59.05;100221.09;4798488;29;123869;-71
2021/01/30 03:01:37;;;;;;;26.42;19.70;;;;;;;5.64;58.90;100220.31;4787590;29;114317;-71
2021/01/30 03:04:19;;;;;;;27.38;19.15;;;;;;;5.61;59.15;100225.69;4794305;29;114432;-71
2021/01/30 03:07:00;;;;;;;26.92;19.45;;;;;;;5.59;58.97;100222.22;4791665;29;124058;-72
2021/01/30 03:09:40;;;;;;;25.63;17.92;;;;;;;5.54;58.90;100224.19;4805307;29;122729;-72
2021/01/30 03:12:45;;;;;;;27.13;19.02;;;;;;;5.50;59.18;100233.06;4789594;29;114886;-72
2021/01/30 03:15:37;;;;;;;25.05;16.70;;;;;;;5.46;58.76;100236.69;4766928;29;113961;-72
2021/01/30 03:18:07;;;;;;;23.90;17.52;;;;;;;5.42;58.91;100235.09;4781557;29;123627;-71
2021/01/30 03:20:39;;;;;;;22.67;17.00;;;;;;;5.40;59.00;100244.78;4787095;29;123947;-72
2021/01/30 03:23:08;;;;;;;19.50;15.05;;;;;;;5.38;58.74;100238.72;4791452;29;115148;-72
2021/01/30 03:25:37;;;;;;;16.90;13.13;;;;;;;5.34;58.69;100242.38;4796902;29;115130;-72
2021/01/30 03:28:04;;;;;;;16.80;11.85;;;;;;;5.31;58.29;100247.72;4790372;29;123327;-72
2021/01/30 03:30:32;;;;;;;17.23;13.02;;;;;;;5.28;58.37;100242.59;4802302;29;122943;-71
2021/01/30 03:33:01;;;;;;;15.80;12.63;;;;;;;5.25;58.29;100244.41;4789942;29;114263;-71
2021/01/30 03:35:28;;;;;;;16.88;12.93;;;;;;;5.22;58.65;100249.75;4799855;29;116410;-72
2021/01/30 03:37:54;;;;;;;16.77;13.05;;;;;;;5.21;58.21;100245.38;4786187;29;123802;-72
2021/01/30 03:40:22;;;;;;;17.05;13.00;;;;;;;5.19;58.59;100249.81;4796769;29;124374;-72
2021/01/30 03:42:48;;;;;;;15.48;11.40;;;;;;;5.19;58.53;100247.19;4810503;29;113368;-72
2021/01/30 03:45:20;;;;;;;15.15;11.93;;;;;;;5.19;58.34;100247.19;4790368;29;114644;-72
2021/01/30 03:47:47;;;;;;;17.70;13.20;;;;;;;5.19;58.48;100243.72;4792886;29;124124;-72
2021/01/30 03:50:15;;;;;;;16.73;13.27;;;;;;;5.18;58.13;100253.38;4809185;29;123884;-72
2021/01/30 03:52:42;;;;;;;16.50;12.68;;;;;;;5.15;58.00;100248.22;4798818;29;113982;-72
2021/01/30 03:55:09;;;;;;;17.90;13.35;;;;;;;5.12;58.29;100243.06;4814782;29;115319;-72
2021/01/30 03:57:36;;;;;;;18.17;13.73;;;;;;;5.10;58.31;100242.25;4814567;29;123836;-72
2021/01/30 04:00:10;;;;;;;18.33;13.57;;;;;;;5.08;58.30;100249.31;4816687;29;123908;-72
2021/01/30 04:02:40;;;;;;;17.83;13.13;;;;;;;5.07;58.37;100255.50;4817187;29;114535;-72
2021/01/30 04:05:10;;;;;;;17.45;11.60;;;;;;;5.04;58.23;100245.06;4813774;29;113605;-72
2021/01/30 04:07:38;;;;;;;17.02;11.77;;;;;;;5.05;58.53;100246.81;4814049;29;124060;-72
2021/01/30 04:10:07;;;;;;;15.23;12.15;;;;;;;5.05;58.32;100244.19;4808755;29;123899;-72
2021/01/30 04:12:34;;;;;;;17.63;12.30;;;;;;;5.03;58.28;100246.00;4812013;29;115107;-72
2021/01/30 04:15:01;;;;;;;17.65;12.85;;;;;;;5.00;58.35;100223.31;4816113;29;114544;-72
2021/01/30 04:17:27;;;;;;;17.42;12.90;;;;;;;4.99;58.22;100221.63;4810459;29;124303;-72
2021/01/30 04:19:54;;;;;;;15.15;11.95;;;;;;;5.00;58.48;100222.47;4807807;29;124327;-72
2021/01/30 04:22:21;;;;;;;15.45;12.02;;;;;;;4.99;58.46;100226.88;4816577;29;114296;-71
2021/01/30 04:24:47;;;;;;;15.38;11.30;;;;;;;4.99;58.05;100241.72;4818732;29;112307;-72
2021/01/30 04:27:14;;;;;;;15.90;11.68;;;;;;;4.96;58.08;100252.34;4807652;29;123320;-72
2021/01/30 04:29:44;;;;;;;17.90;12.55;;;;;;;4.94;58.04;100243.66;4817503;29;124180;-71
2021/01/30 04:32:11;;;;;;;16.83;13.18;;;;;;;4.90;57.64;100242.00;4811781;29;113338;-72
2021/01/30 04:34:38;;;;;;;18.58;12.32;;;;;;;4.87;57.80;100243.84;4814794;29;113401;-71
2021/01/30 04:37:05;;;;;;;17.83;12.98;;;;;;;4.82;57.64;100240.53;4819162;29;124150;-71
2021/01/30 04:39:31;;;;;;;17.63;12.15;;;;;;;4.80;57.95;100242.34;4818642;29;123713;-71
2021/01/30 04:42:12;;;;;;;16.25;11.30;;;;;;;4.78;57.78;100238.88;4815001;29;114287;-71
2021/01/30 04:45:01;;;;;;;16.17;11.68;;;;;;;4.76;58.05;100238.06;4814796;29;114210;-71
2021/01/30 04:47:30;;;;;;;16.70;11.45;;;;;;;4.75;58.13;100244.22;4814877;29;123750;-72
2021/01/30 04:50:10;;;;;;;16.48;11.40;;;;;;;4.74;58.06;100229.38;4815880;29;123975;-71
2021/01/30 04:52:46;;;;;;;15.40;11.80;;;;;;;4.75;58.25;100233.75;4815922;29;114104;-72
2021/01/30 04:55:37;;;;;;;;;;;;;;;4.75;58.28;100233.75;4814196;29;113922;-72
2021/01/30 04:58:15;;;;;;;15.00;10.90;;;;;;;4.74;57.84;100226.75;4810514;29;123808;-71
2021/01/30 05:00:58;;;;;;;14.50;11.77;;;;;;;4.73;57.95;100224.19;4809139;29;124756;-72
2021/01/30 05:03:40;;;;;;;15.23;11.93;;;;;;;4.69;57.69;100228.69;4811843;29;114309;-71
2021/01/30 05:06:13;;;;;;;13.90;10.73;;;;;;;4.64;57.84;100235.84;4816346;29;115586;-71
2021/01/30 05:08:46;;;;;;;15.60;12.07;;;;;;;4.62;57.63;100232.41;4812657;29;124285;-71
2021/01/30 05:11:19;;;;;;;13.20;10.77;;;;;;;4.58;57.56;100241.28;4814493;29;124151;-72
2021/01/30 05:13:58;;;;;;;15.30;11.63;;;;;;;4.55;57.71;100233.47;4816808;29;114068;-72
2021/01/30 05:16:33;;;;;;;15.18;11.88;;;;;;;4.51;57.68;100224.00;4813477;29;114062;-71
2021/01/30 05:19:10;;;;;;;15.05;11.63;;;;;;;4.49;57.76;100227.50;4817705;29;124865;-71
2021/01/30 05:21:48;;;;;;;14.05;10.43;;;;;;;4.45;57.57;100220.66;4809088;29;125281;-71
2021/01/30 05:24:16;;;;;;;14.57;11.05;;;;;;;4.42;57.83;100231.22;4820084;29;114785;-71
2021/01/30 05:26:56;;;;;;;15.43;10.82;;;;;;;4.42;57.60;100240.84;4818203;29;114038;-71
2021/01/30 05:29:33;;;;;;;14.13;11.07;;;;;;;4.42;57.92;100230.38;4813927;29;123027;-72
2021/01/30 05:32:12;;;;;;;15.25;11.95;;;;;;;4.42;57.63;100232.97;4817200;29;124646;-71
2021/01/30 05:34:51;;;;;;;13.52;11.30;;;;;;;4.41;57.77;100224.28;4815317;29;116456;-72
2021/01/30 05:37:35;;;;;;;14.55;10.68;;;;;;;4.41;57.87;100216.41;4817079;29;114411;-71
2021/01/30 05:40:15;;;;;;;13.98;11.15;;;;;;;4.42;57.91;100219.88;4816547;29;124659;-72
2021/01/30 05:42:49;;;;;;;13.40;10.75;;;;;;;4.41;57.68;100208.53;4822575;23;123936;-72
2021/01/30 05:45:48;;;;;;;13.65;10.90;;;;;;;4.39;57.82;100205.09;4803389;29;113731;-71
2021/01/30 05:48:20;;;;;;;14.68;11.57;;;;;;;4.37;57.64;100217.41;4800409;29;114094;-71
2021/01/30 05:50:51;;;;;;;13.65;11.32;;;;;;;4.37;57.83;100212.16;4803083;29;123916;-71
2021/01/30 05:53:22;;;;;;;15.02;11.10;;;;;;;4.34;57.68;100214.84;4803857;29;123436;-70
2021/01/30 05:55:49;;;;;;;14.73;11.90;;;;;;;4.35;57.59;100215.72;4808032;29;114404;-71
2021/01/30 05:58:19;;;;;;;13.48;11.80;;;;;;;4.34;57.68;100222.72;4805481;29;114681;-70
2021/01/30 06:00:46;;;;;;;13.98;10.13;;;;;;;4.33;57.42;100218.38;4805654;29;123751;-72
2021/01/30 06:03:17;;;;;;;12.70;9.93;;;;;;;4.33;57.63;100221.00;4802461;29;124721;-71
2021/01/30 06:05:49;;;;;;;13.75;10.80;;;;;;;4.33;57.72;100218.38;4785936;29;112934;-70
2021/01/30 06:08:29;;;;;;;12.88;10.25;;;;;;;4.35;57.78;100208.72;4803412;29;114223;-70
2021/01/30 06:11:10;;;;;;;12.48;10.27;;;;;;;4.35;57.75;100219.22;4800383;29;123641;-71
2021/01/30 06:14:09;;;;;;;13.10;10.52;;;;;;;4.34;57.43;100212.25;4804045;29;124158;-71
2021/01/30 06:16:45;;;;;;;12.20;8.77;;;;;;;4.34;57.34;100212.25;4800586;29;112722;-72
2021/01/30 06:19:21;;;;;;;13.73;10.45;;;;;;;4.34;57.32;100217.47;4798544;29;113073;-71
2021/01/30 06:21:49;;;;;;;11.68;9.05;;;;;;;4.33;57.25;100215.75;4784423;29;124037;-71
2021/01/30 06:24:28;;;;;;;10.55;8.23;;;;;;;4.33;57.46;100215.75;4784915;29;123188;-71
2021/01/30 06:27:01;;;;;;;12.57;8.70;;;;;;;4.33;57.19;100221.00;4803953;29;114347;-71
2021/01/30 06:29:49;;;;;;;10.70;8.75;;;;;;;4.34;57.22;100222.72;4803533;29;113690;-71
2021/01/30 06:32:18;;;;;;;11.25;8.35;;;;;;;4.36;56.94;100226.16;4804540;29;123997;-71
2021/01/30 06:35:13;;;;;;;10.27;8.20;;;;;;;4.35;57.03;100228.81;4806780;29;123888;-71
2021/01/30 06:37:48;;;;;;;12.38;9.00;;;;;;;4.36;56.94;100231.41;4795351;29;114212;-71
2021/01/30 06:40:22;;;;;;;10.45;7.80;;;;;;;4.38;57.12;100234.84;4803938;29;114091;-71
2021/01/30 06:42:52;;;;;;;11.55;8.50;;;;;;;4.40;56.86;100230.41;4803888;29;124573;-71
2021/01/30 06:45:31;;;;;;;10.00;7.90;;;;;;;4.40;57.06;100233.03;4800632;29;123827;-70
2021/01/30 06:47:58;;;;;;;10.55;7.63;;;;;;;4.43;57.12;100238.19;4790251;29;114930;-70
2021/01/30 06:50:35;;;;;;;10.25;7.90;;;;;;;4.44;56.81;100242.50;4807101;29;115463;-70
2021/01/30 06:53:23;;;;;;;12.43;8.85;;;;;;;4.45;56.96;100246.88;4790228;29;123170;-71
2021/01/30 06:55:52;;;;;;;10.75;8.23;;;;;;;4.48;57.00;100246.78;4805340;29;124640;-70
2021/01/30 06:58:37;;;;;;;10.40;7.97;;;;;;;4.49;57.05;100243.25;4804021;29;114266;-70
2021/01/30 07:01:08;;;;;;;10.77;8.60;;;;;;;4.51;56.87;100239.72;4807356;29;113832;-70
2021/01/30 07:03:58;;;;;;;11.15;9.07;;;;;;;4.51;57.14;100231.88;4785233;29;124172;-70
2021/01/30 07:06:35;;;;;;;10.40;8.32;;;;;;;4.51;57.05;100230.09;4793908;29;123815;-71
2021/01/30 07:09:15;;;;;;;11.00;7.75;;;;;;;4.53;57.24;100235.28;4800959;29;113844;-71
2021/01/30 07:12:14;;;;;;;10.90;8.65;;;;;;;4.54;56.92;100239.63;4802049;29;114248;-70
2021/01/30 07:15:02;;;;;;;12.30;8.35;;;;;;;4.54;57.23;100229.13;4767492;29;124535;-71
2021/01/30 07:18:09;;;;;;;10.65;8.82;;;;;;;4.54;57.15;100234.38;4783335;29;123694;-71
2021/01/30 07:21:00;;;;;;;10.25;7.88;;;;;;;4.51;57.10;100240.59;4801924;29;115079;-71
2021/01/30 07:24:04;;;;;;;10.93;9.00;;;;;;;4.49;57.09;100237.16;4801393;29;114520;-71
2021/01/30 07:26:39;;;;;;;12.10;8.93;;;;;;;4.48;57.15;100241.53;4783999;29;124401;-70
2021/01/30 07:29:37;;;;;;;10.50;8.40;;;;;;;4.46;57.38;100227.63;4786754;29;123354;-71
2021/01/30 07:32:30;;;;;;;10.90;8.23;;;;;;;4.45;57.30;100225.88;4796757;29;114347;-70
2021/01/30 07:35:06;;;;;;;10.60;7.63;;;;;;;4.47;57.32;100218.84;4794090;29;113585;-70
2021/01/30 07:37:47;;;;;;;10.70;7.87;;;;;;;4.48;57.19;100225.81;4803107;29;124633;-71
2021/01/30 07:40:23;;;;;;;10.18;8.30;;;;;;;4.51;57.27;100224.84;4785217;29;96804;-71
2021/01/30 07:43:01;;;;;;;10.35;7.53;;;;;;;4.54;57.15;100235.25;4802477;29;115463;-70
2021/01/30 07:45:33;;;;;;;11.32;7.65;;;;;;;4.57;57.25;100234.28;4804818;29;114909;-71
2021/01/30 07:48:23;;;;;;;11.80;7.68;;;;;;;4.60;57.30;100228.97;4806356;29;124563;-71
2021/01/30 07:50:55;;;;;;;8.85;6.65;;;;;;;4.60;57.11;100228.97;4801648;29;124234;-71
2021/01/30 07:53:27;;;;;;;10.40;7.30;;;;;;;4.61;56.93;100230.66;4792087;29;113136;-70
2021/01/30 07:56:12;;;;;;;10.80;6.97;;;;;;;4.62;57.16;100237.66;4793990;29;113326;-70
2021/01/30 07:58:47;;;;;;;8.82;6.63;;;;;;;4.61;56.95;100243.78;4784356;29;123486;-70
2021/01/30 08:01:40;;;;;;;8.82;6.75;;;;;;;4.61;56.83;100246.41;4808587;29;123740;-71
2021/01/30 08:04:38;;;;;;;8.15;6.38;;;;;;;4.59;56.36;100232.47;4800540;29;115037;-71
2021/01/30 08:07:36;;;;;;;8.18;6.28;;;;;;;4.55;56.27;100220.38;4784380;29;113408;-70
2021/01/30 08:10:22;;;;;;;9.05;7.25;;;;;;;4.55;56.33;100230.88;4778447;29;123419;-72
2021/01/30 08:13:13;;;;;;;8.70;6.38;;;;;;;4.55;56.67;100230.88;4801685;29;123461;-72
2021/01/30 08:15:48;;;;;;;8.35;7.07;;;;;;;4.56;56.61;100227.31;4803139;29;114033;-72
2021/01/30 08:18:30;;;;;;;9.27;7.20;;;;;;;4.56;56.32;100222.94;4801672;29;113839;-71
2021/01/30 08:21:26;;;;;;;8.57;6.65;;;;;;;4.54;56.16;100223.88;4807482;29;122904;-71
2021/01/30 08:24:12;;;;;;;;;;;;;;;4.52;56.34;100226.59;4801695;29;123434;-71
2021/01/30 08:26:44;;;;;;;8.95;7.00;;;;;;;4.55;56.02;100223.00;4801847;29;114624;-71
2021/01/30 08:29:20;;;;;;;10.57;7.22;;;;;;;4.52;56.01;100220.44;4809009;29;113898;-73
2021/01/30 08:32:00;;;;;;;9.40;7.05;;;;;;;4.52;56.24;100221.34;4800064;29;123209;-72
2021/01/30 08:34:38;;;;;;;10.55;8.48;;;;;;;4.52;56.40;100209.97;4832471;23;124746;-72
2021/01/30 08:37:16;;;;;;;9.73;7.78;;;;;;;4.53;56.45;100216.94;4802291;29;114332;-72
2021/01/30 08:40:14;;;;;;;9.02;7.10;;;;;;;4.52;56.50;100210.84;4802992;29;114385;-72
2021/01/30 08:43:05;;;;;;;10.15;8.18;;;;;;;4.53;56.29;100211.69;4787841;29;123895;-72
2021/01/30 08:45:38;;;;;;;10.90;8.52;;;;;;;4.55;56.29;100220.38;4805644;29;122827;-72
2021/01/30 08:48:21;;;;;;;11.93;8.73;;;;;;;4.57;56.46;100222.03;4831207;23;114607;-71
2021/01/30 08:50:50;;;;;;;11.13;8.55;;;;;;;4.60;56.33;100208.00;4812809;29;114734;-71
2021/01/30 08:53:23;;;;;;;12.88;8.70;;;;;;;4.61;56.26;100214.94;4790952;29;122535;-72
2021/01/30 08:56:03;;;;;;;10.18;7.78;;;;;;;4.63;56.39;100215.75;4800765;29;123149;-71
2021/01/30 08:58:35;;;;;;;10.52;7.80;;;;;;;4.63;56.21;100207.88;4792321;29;114079;-71
2021/01/30 09:01:25;;;;;;;10.70;8.57;;;;;;;4.66;56.32;100213.03;4810559;29;114246;-74
2021/01/30 09:04:43;;;;;;;10.13;7.05;;;;;;;4.68;56.09;100216.47;4818385;29;124395;-73
2021/01/30 09:07:44;;;;;;;9.15;7.30;;;;;;;4.67;56.07;100209.50;4837127;28;123271;-72
2021/01/30 09:10:28;;;;;;;9.30;6.70;;;;;;;4.68;56.14;100205.97;4801817;29;114298;-73
2021/01/30 09:13:25;;;;;;;10.75;7.28;;;;;;;4.67;55.95;100212.13;4808122;29;113920;-71
2021/01/30 09:16:04;;;;;;;10.20;7.68;;;;;;;4.68;55.73;100205.97;4788985;29;121820;-71
2021/01/30 09:18:31;;;;;;;9.38;7.00;;;;;;;4.70;56.08;100198.91;4801056;29;123879;-70
2021/01/30 09:21:17;;;;;;;10.13;7.60;;;;;;;4.72;55.91;100218.09;4795472;29;116001;-71
2021/01/30 09:24:21;;;;;;;9.38;7.18;;;;;;;4.73;55.81;100203.19;4790881;29;114449;-72
2021/01/30 09:27:24;;;;;;;9.07;6.93;;;;;;;4.75;56.03;100202.25;4805147;29;124459;-71
2021/01/30 09:29:55;;;;;;;10.50;7.13;;;;;;;4.79;56.29;100198.63;4774122;29;123236;-71
2021/01/30 09:32:43;;;;;;;9.35;7.10;;;;;;;4.82;56.19;100198.53;4791927;29;114321;-70
2021/01/30 09:35:35;;;;;;;10.40;7.57;;;;;;;4.85;56.29;100195.81;4802398;29;115213;-71
2021/01/30 09:38:23;;;;;;;12.57;7.13;;;;;;;4.88;55.88;100193.09;4808076;29;124242;-71
2021/01/30 09:41:08;;;;;;;10.25;7.25;;;;;;;4.93;56.07;100194.69;4798275;29;125597;-71
2021/01/30 09:43:35;;;;;;;9.23;7.35;;;;;;;5.00;56.37;100201.47;4805146;29;114229;-71
2021/01/30 09:46:05;;;;;;;7.47;5.70;;;;;;;5.03;56.13;100196.13;4806598;29;114389;-71
2021/01/30 09:48:36;;;;;;;7.90;5.85;;;;;;;5.05;55.49;100200.41;4802823;29;123441;-71
2021/01/30 09:51:06;;;;;;;6.78;5.40;;;;;;;5.07;55.00;100197.75;4798990;29;123558;-72
2021/01/30 09:53:38;;;;;;;8.23;5.85;;;;;;;5.06;55.48;100191.63;4801660;29;115156;-72
2021/01/30 09:56:13;;;;;;;7.35;5.00;;;;;;;5.10;55.80;100197.63;4804829;29;114925;-72
2021/01/30 09:58:42;;;;;;;;;;;;;;;5.11;55.35;100180.97;4808082;29;123453;-73
2021/01/30 10:01:23;;;;;;;6.68;5.80;;;;;;;5.13;55.26;100178.31;4809221;29;125153;-73
2021/01/30 10:03:51;;;;;;;6.93;5.10;;;;;;;5.12;55.13;100179.22;4813551;29;114631;-72
2021/01/30 10:06:26;;;;;;;7.28;5.18;;;;;;;5.15;55.10;100179.13;4818635;29;114602;-73
2021/01/30 10:08:54;;;;;;;7.10;5.43;;;;;;;5.17;55.35;100182.53;4805351;29;124675;-71
2021/01/30 10:11:21;;;;;;;5.55;4.40;;;;;;;5.19;55.33;100181.56;4810314;29;124163;-72
2021/01/30 10:13:55;;;;;;;5.78;4.90;;;;;;;5.20;55.18;100183.31;4808565;29;114306;-72
2021/01/30 10:16:25;;;;;;;6.70;5.03;;;;;;;5.22;55.24;100183.25;4800223;29;114700;-72
2021/01/30 10:18:56;;;;;;;6.57;5.35;;;;;;;5.24;54.96;100179.66;4804114;29;123986;-71
2021/01/30 10:21:32;;;;;;;6.18;5.00;;;;;;;5.29;55.27;100181.28;4802282;29;124105;-72
2021/01/30 10:24:10;;;;;;;6.00;4.80;;;;;;;5.32;55.10;100181.19;4805497;29;115909;-71
2021/01/30 10:26:37;;;;;;;6.25;5.10;;;;;;;5.37;55.37;100189.72;4809997;29;113001;-71
2021/01/30 10:29:08;;;;;;;6.28;4.75;;;;;;;5.41;55.02;100175.63;4802509;29;122663;-71
2021/01/30 10:32:03;;;;;;;6.32;4.78;;;;;;;5.42;54.71;100182.56;4799635;29;124178;-71
2021/01/30 10:34:47;;;;;;;9.27;5.03;;;;;;;5.44;54.66;100178.13;4787485;29;114326;-72
2021/01/30 10:37:18;;;;;;;5.72;4.35;;;;;;;5.44;54.50;100175.50;4804013;29;114090;-72
2021/01/30 10:39:49;;;;;;;6.20;4.75;;;;;;;5.45;54.36;100174.59;4799492;29;123367;-70
2021/01/30 10:42:22;;;;;;;5.82;3.90;;;;;;;5.46;54.52;100184.16;4804641;29;123464;-72
2021/01/30 10:44:56;;;;;;;5.10;4.22;;;;;;;5.50;54.78;100177.94;4802949;29;114237;-71
2021/01/30 10:47:24;;;;;;;6.38;4.60;;;;;;;5.54;54.73;100182.16;4803165;29;114081;-71
2021/01/30 10:50:21;;;;;;;4.25;3.67;;;;;;;5.59;54.35;100174.94;4804394;29;123559;-72
2021/01/30 10:52:49;;;;;;;6.22;4.00;;;;;;;5.62;54.57;100174.84;4796588;29;124356;-71
2021/01/30 10:55:35;;;;;;;6.47;4.22;;;;;;;5.65;54.08;100174.75;4802012;29;113372;-72
2021/01/30 10:58:31;;;;;;;;;;;;;;;5.69;54.44;100158.84;4798628;29;113830;-72
2021/01/30 11:01:05;;;;;;;8.02;4.78;;;;;;;5.75;54.32;100158.66;4790490;29;123332;-71
2021/01/30 11:03:42;;;;;;;6.05;4.82;;;;;;;5.77;54.58;100162.09;4805042;29;124464;-71
2021/01/30 11:06:29;;;;;;;7.05;4.65;;;;;;;5.81;54.66;100147.91;4803862;29;114867;-74
2021/01/30 11:09:20;;;;;;;6.40;4.45;;;;;;;5.87;54.42;100147.69;4799752;29;113989;-73
2021/01/30 11:11:51;;;;;;;5.53;3.90;;;;;;;5.89;54.48;100145.84;4790038;29;125193;-73
2021/01/30 11:14:27;;;;;;;6.13;5.50;;;;;;;5.90;53.91;100137.06;4799997;29;124384;-72
2021/01/30 11:16:56;;;;;;;6.68;4.50;;;;;;;5.89;54.34;100145.84;4802877;29;115427;-71
2021/01/30 11:19:33;;;;;;;6.10;4.30;;;;;;;5.92;54.64;100145.75;4790962;29;114385;-74
2021/01/30 11:22:18;;;;;;;5.60;4.20;;;;;;;5.95;54.82;100135.16;4806653;29;124171;-70
2021/01/30 11:25:11;;;;;;;6.03;4.73;;;;;;;6.02;54.44;100141.88;4802669;29;124919;-72
2021/01/30 11:27:49;;;;;;;6.85;4.15;;;;;;;6.07;54.56;100140.88;4819326;29;114298;-72
2021/01/30 11:30:39;;;;;;;5.75;4.40;;;;;;;6.08;54.27;100134.69;4812037;29;113209;-72
2021/01/30 11:33:14;;;;;;;6.18;4.75;;;;;;;6.11;54.12;100124.06;4793760;29;122774;-73
2021/01/30 11:35:50;;;;;;;5.80;4.72;;;;;;;6.12;54.14;100125.78;4799369;29;124545;-71
2021/01/30 11:38:24;;;;;;;6.05;4.95;;;;;;;6.15;54.04;100120.41;4793243;29;114504;-72
2021/01/30 11:40:53;;;;;;;5.93;4.72;;;;;;;6.16;53.98;100127.34;4814346;29;113760;-72
2021/01/30 11:55:40;;;;;;;6.93;5.10;;;;;;;6.21;53.58;100105.22;5087098;23;99239;-81
2021/01/30 12:05:47;;;;;;;6.95;5.68;;;;;;;6.19;53.88;100082.56;5833328;23;98933;-80
2021/01/30 12:11:50;;;;;;;7.03;6.18;;;;;;;6.23;53.59;100081.50;5783595;23;99531;31
2021/01/30 12:14:39;;;;;;;5.45;4.82;;;;;;;6.28;53.66;100074.31;4823411;28;113470;-79
2021/01/30 12:17:51;;;;;;;4.70;4.15;;;;;;;6.33;53.64;100077.63;4790148;29;115735;-80
2021/01/30 12:20:25;;;;;;;6.45;4.68;;;;;;;6.38;53.79;100070.38;4782226;29;124316;-79
2021/01/30 12:23:14;;;;;;;6.95;4.50;;;;;;;6.40;52.86;100080.84;4781597;29;123665;-80
2021/01/30 12:26:38;;;;;;;6.57;4.40;;;;;;;6.39;53.68;100066.84;4791285;29;113752;-79